Terminal Aerodrome Forecast
Issued by NWS Wilmington, OH

Current Version | Previous Version | Graphics & Text | Print | Product List | Glossary On
Versions: 1 2 3 4 5 6 7 8 9 10 11 12 13 14 15 16 17 18 19 20 21 22 23 24 25 26 27
591
FTUS41 KILN 241734
TAFCVG
TAF
KCVG 241734Z 2418/2524 22008KT P6SM SCT035 SCT150 SCT250
     FM250100 VRB03KT P6SM BKN250
     FM251300 23005KT P6SM BKN250
     FM251600 25007KT P6SM VCTS SCT040CB=

USA.gov is the U.S. government's official web portal to all federal, state and local government web resources and services.